Rio Bananal, Brazil
Current Conditions -  °F | °C
As of 5:00 AM on Sunday 21 Dec 2014 (Local Time) from SBVT Reporting Station
Clear Clear  
Wind Chill: 77°   Ceiling: Unl
Heat Index: 79°   Visibility: 6mi
Dew Point: 68°   Wind: 14mph
Humidity: 74%   Direction: 20°NNE
Pressure: 29.88"   Gusts: NA
Location:  19.26°S, 40.34°W
Report Text: SBVT 210700Z 02012KT CAVOK 25/20 Q1012
Loading
Personal Weather Stations






























Interactive Weather Map New forecast layout! Learn more

10-Day Weather Forecast

Advertisements
Track Severe Weather on mobile